createdAt,value
2018-04-30T00:00:18.900Z,19.10
2018-04-30T00:02:48.646Z,18.10
2018-04-30T00:05:17.736Z,17.60
2018-04-30T00:07:47.682Z,17.40
2018-04-30T00:10:17.553Z,18.13
2018-04-30T00:12:46.876Z,17.93
2018-04-30T00:15:15.975Z,20.20
2018-04-30T00:17:45.055Z,17.83
2018-04-30T00:20:14.097Z,18.17
2018-04-30T00:22:43.164Z,19.47
2018-04-30T00:25:13.006Z,17.83
2018-04-30T00:27:42.109Z,18.07
2018-04-30T00:30:11.175Z,18.10
2018-04-30T00:32:40.221Z,18.77
2018-04-30T00:35:09.308Z,17.97
2018-04-30T00:37:38.348Z,18.27
2018-04-30T00:40:07.429Z,17.40
2018-04-30T00:42:36.516Z,18.17
2018-04-30T00:45:06.573Z,17.60
2018-04-30T00:47:36.372Z,20.00
2018-04-30T00:50:06.220Z,18.07
2018-04-30T00:52:35.269Z,18.63
2018-04-30T00:55:04.357Z,20.23
2018-04-30T00:57:33.420Z,18.00
2018-04-30T01:00:02.501Z,18.80
2018-04-30T01:02:31.581Z,18.63
2018-04-30T01:05:01.390Z,18.87
2018-04-30T01:07:31.218Z,18.40
2018-04-30T01:10:00.256Z,18.27
2018-04-30T01:12:29.342Z,16.90
2018-04-30T01:14:58.391Z,19.97
2018-04-30T01:17:27.473Z,18.10
2018-04-30T01:19:57.282Z,17.80
2018-04-30T01:22:27.130Z,18.17
2018-04-30T01:24:56.177Z,17.70
2018-04-30T01:27:25.223Z,18.03
2018-04-30T01:29:54.304Z,18.97
2018-04-30T01:32:23.385Z,18.47
2018-04-30T01:34:53.229Z,18.67
2018-04-30T01:37:22.276Z,19.10
2018-04-30T01:39:52.121Z,16.67
2018-04-30T01:42:21.193Z,17.63
2018-04-30T01:44:51.198Z,18.63
2018-04-30T01:47:20.249Z,17.80
2018-04-30T01:49:49.345Z,19.17
2018-04-30T01:52:18.445Z,18.13
2018-04-30T01:54:48.428Z,17.50
2018-04-30T01:57:17.498Z,19.23
2018-04-30T01:59:47.348Z,18.90
2018-04-30T02:02:16.407Z,18.80
2018-04-30T02:04:46.258Z,18.03
2018-04-30T02:07:15.321Z,19.20
2018-04-30T02:09:45.144Z,19.20
2018-04-30T02:12:16.330Z,18.33
2018-04-30T02:14:46.215Z,18.90
2018-04-30T02:17:15.263Z,20.00
2018-04-30T02:19:44.350Z,19.13
2018-04-30T02:22:13.416Z,20.27
2018-04-30T02:24:42.469Z,18.40
2018-04-30T02:27:12.313Z,18.00
2018-04-30T02:29:41.385Z,18.40
2018-04-30T02:32:10.867Z,18.97
2018-04-30T02:34:40.706Z,18.37
2018-04-30T02:37:10.064Z,19.10
2018-04-30T02:39:39.707Z,19.20
2018-04-30T02:42:09.529Z,18.50
2018-04-30T02:44:38.614Z,18.37
2018-04-30T02:47:07.691Z,18.60
2018-04-30T02:49:36.763Z,17.60
2018-04-30T02:52:05.893Z,19.17
2018-04-30T02:54:34.895Z,18.53
2018-04-30T02:57:03.994Z,19.33
2018-04-30T02:59:33.795Z,18.17
2018-04-30T03:02:03.636Z,19.47
2018-04-30T03:04:33.650Z,18.30
2018-04-30T03:07:02.723Z,20.03
2018-04-30T03:09:32.734Z,19.50
2018-04-30T03:12:13.118Z,18.23
2018-04-30T03:14:42.181Z,18.07
2018-04-30T03:17:13.541Z,16.80
2018-04-30T03:19:42.627Z,18.83
2018-04-30T03:22:13.025Z,19.23
2018-04-30T03:24:42.121Z,19.57
2018-04-30T03:27:11.207Z,17.50
2018-04-30T03:29:40.257Z,19.53
2018-04-30T03:32:09.335Z,18.70
2018-04-30T03:34:39.180Z,18.63
2018-04-30T03:37:08.309Z,17.40
2018-04-30T03:39:37.425Z,17.30
2018-04-30T03:42:07.491Z,18.17
2018-04-30T03:44:36.549Z,19.57
2018-04-30T03:47:06.396Z,19.57
2018-04-30T03:49:35.498Z,18.50
2018-04-30T03:52:04.560Z,17.50
2018-04-30T03:54:33.607Z,17.90
2018-04-30T03:57:02.689Z,19.10
2018-04-30T03:59:31.766Z,17.60
2018-04-30T04:02:18.462Z,18.13
2018-04-30T04:18:20.713Z,17.23
2018-04-30T04:20:49.739Z,18.93
2018-04-30T04:23:18.785Z,19.97
2018-04-30T04:25:52.754Z,19.63
2018-04-30T04:28:21.808Z,19.43
2018-04-30T04:30:50.917Z,19.30
2018-04-30T04:33:19.984Z,18.73
2018-04-30T04:35:49.793Z,18.40
2018-04-30T04:38:20.241Z,19.47
2018-04-30T04:40:49.294Z,19.90
2018-04-30T04:43:18.371Z,21.40
2018-04-30T04:45:47.417Z,20.50
2018-04-30T04:48:16.564Z,19.73
2018-04-30T04:50:45.606Z,18.90
2018-04-30T04:53:14.659Z,18.53
2018-04-30T04:55:43.797Z,20.13
2018-04-30T04:58:12.953Z,19.17
2018-04-30T05:00:42.084Z,20.37
2018-04-30T05:03:11.212Z,23.20
2018-04-30T05:05:40.277Z,18.53
2018-04-30T05:08:09.333Z,18.73
2018-04-30T05:10:38.423Z,16.20
2018-04-30T05:13:08.512Z,18.53
2018-04-30T05:15:37.574Z,18.20
2018-04-30T05:18:06.670Z,18.37
2018-04-30T05:20:35.721Z,19.23
2018-04-30T05:23:04.819Z,19.00
2018-04-30T05:25:33.865Z,18.90
2018-04-30T05:28:02.941Z,18.37
2018-04-30T05:30:32.750Z,20.87
2018-04-30T05:33:02.598Z,19.53
2018-04-30T05:35:31.645Z,18.90
2018-04-30T05:38:00.731Z,18.00
2018-04-30T05:40:29.814Z,18.30
2018-04-30T05:42:58.870Z,17.77
2018-04-30T05:45:27.946Z,18.20
2018-04-30T05:47:57.323Z,18.83
2018-04-30T05:50:26.358Z,19.47
2018-04-30T05:52:55.453Z,20.63
2018-04-30T05:55:25.278Z,19.90
2018-04-30T05:57:54.358Z,22.90
2018-04-30T06:00:24.187Z,20.30
2018-04-30T06:02:53.341Z,18.60
2018-04-30T06:05:23.153Z,20.33
2018-04-30T06:07:53.005Z,19.67
2018-04-30T06:10:22.053Z,19.77
2018-04-30T06:12:51.906Z,18.53
2018-04-30T06:15:20.948Z,17.90
2018-04-30T06:17:50.158Z,18.17
2018-04-30T06:20:19.240Z,18.93
2018-04-30T06:22:48.330Z,18.83
2018-04-30T06:25:17.419Z,16.80
2018-04-30T06:27:46.502Z,18.20
2018-04-30T06:30:15.577Z,16.60
2018-04-30T06:32:45.325Z,16.57
2018-04-30T06:35:14.506Z,15.10
2018-04-30T06:37:43.701Z,14.87
2018-04-30T06:40:12.792Z,15.03
2018-04-30T06:42:41.858Z,16.23
2018-04-30T06:45:10.917Z,17.37
2018-04-30T06:47:40.074Z,14.20
2018-04-30T06:50:09.161Z,14.60
2018-04-30T06:52:38.237Z,14.17
2018-04-30T06:55:07.310Z,12.83
2018-04-30T06:57:37.143Z,12.87
2018-04-30T07:00:06.207Z,13.00
2018-04-30T07:02:35.323Z,13.17
2018-04-30T07:05:04.397Z,14.23
2018-04-30T07:07:33.454Z,13.50
2018-04-30T07:10:02.538Z,12.90
2018-04-30T07:12:31.601Z,14.47
2018-04-30T07:15:01.449Z,16.73
2018-04-30T07:17:30.494Z,16.00
2018-04-30T07:20:00.419Z,14.77
2018-04-30T07:22:29.506Z,19.47
2018-04-30T07:24:59.354Z,15.70
2018-04-30T07:27:28.507Z,15.70
2018-04-30T07:29:58.245Z,15.13
2018-04-30T07:32:27.334Z,17.10
2018-04-30T07:34:57.162Z,51.37
2018-04-30T07:37:26.262Z,29.27
2018-04-30T07:39:55.346Z,18.60
2018-04-30T07:42:24.396Z,17.73
2018-04-30T07:44:53.482Z,15.40
2018-04-30T07:47:22.525Z,19.73
2018-04-30T07:49:51.660Z,17.90
2018-04-30T07:52:20.698Z,16.57
2018-04-30T07:54:50.540Z,16.07
2018-04-30T07:57:19.708Z,17.03
2018-04-30T07:59:48.721Z,30.30
2018-04-30T08:02:17.809Z,24.60
2018-04-30T08:04:46.901Z,17.27
2018-04-30T08:07:16.744Z,19.40
2018-04-30T08:09:45.797Z,18.10
2018-04-30T08:12:15.641Z,15.80
2018-04-30T08:14:44.770Z,22.20
2018-04-30T08:17:14.543Z,27.27
2018-04-30T08:19:43.605Z,30.40
2018-04-30T08:22:12.675Z,18.70
2018-04-30T08:24:41.751Z,16.60
2018-04-30T08:27:10.801Z,15.93
2018-04-30T08:29:40.633Z,14.47
2018-04-30T08:32:09.701Z,16.40
2018-04-30T08:34:39.547Z,16.07
2018-04-30T08:37:08.618Z,15.97
2018-04-30T08:39:38.449Z,16.40
2018-04-30T08:42:07.518Z,16.17
2018-04-30T08:44:37.338Z,16.00
2018-04-30T08:47:07.175Z,16.00
2018-04-30T08:49:36.220Z,16.00
2018-04-30T08:52:05.358Z,15.57
2018-04-30T08:54:34.344Z,14.90
2018-04-30T08:57:03.441Z,16.27
2018-04-30T08:59:32.495Z,15.27
2018-04-30T09:02:01.581Z,16.40
2018-04-30T09:04:30.651Z,15.90
2018-04-30T09:06:59.691Z,14.67
2018-04-30T09:09:29.565Z,16.63
2018-04-30T09:11:58.568Z,17.27
2018-04-30T09:14:27.667Z,15.80
2018-04-30T09:16:56.710Z,16.03
2018-04-30T09:19:25.785Z,15.97
2018-04-30T09:21:55.601Z,15.67
2018-04-30T09:24:25.537Z,16.87
2018-04-30T09:26:54.523Z,15.63
2018-04-30T09:29:23.586Z,15.40
2018-04-30T09:31:52.657Z,14.00
2018-04-30T09:34:22.465Z,13.40
2018-04-30T09:36:51.559Z,12.93
2018-04-30T09:39:20.601Z,13.57
2018-04-30T09:41:50.444Z,12.57
2018-04-30T09:44:19.485Z,12.77
2018-04-30T09:46:48.573Z,13.50
2018-04-30T09:49:17.655Z,12.40
2018-04-30T09:51:46.704Z,13.17
2018-04-30T09:54:15.757Z,12.87
2018-04-30T09:56:44.847Z,13.63
2018-04-30T09:59:13.925Z,11.90
2018-04-30T10:01:43.000Z,13.20
2018-04-30T10:04:12.064Z,13.40
2018-04-30T10:06:41.886Z,12.97
2018-04-30T10:09:10.965Z,14.23
2018-04-30T10:11:40.771Z,13.10
2018-04-30T10:14:09.854Z,13.40
2018-04-30T10:16:38.912Z,13.43
2018-04-30T10:19:08.000Z,12.33
2018-04-30T10:21:37.080Z,11.70
2018-04-30T10:24:06.128Z,12.47
2018-04-30T10:26:35.213Z,13.63
2018-04-30T10:29:04.309Z,13.43
2018-04-30T10:31:33.443Z,13.03
2018-04-30T10:34:02.406Z,13.33
2018-04-30T10:36:31.469Z,13.50
2018-04-30T10:39:00.569Z,13.07
2018-04-30T10:41:29.629Z,12.80
2018-04-30T10:43:58.709Z,17.20
2018-04-30T10:46:28.527Z,18.13
2018-04-30T10:48:58.365Z,13.53
2018-04-30T10:51:27.428Z,14.60
2018-04-30T10:53:57.276Z,28.80
2018-04-30T10:56:26.333Z,16.47
2018-04-30T10:58:55.384Z,15.20
2018-04-30T11:01:24.462Z,12.50
2018-04-30T11:03:53.554Z,12.80
2018-04-30T11:06:22.622Z,12.17
2018-04-30T11:08:52.503Z,12.23
2018-04-30T11:11:21.884Z,13.93
2018-04-30T11:13:51.697Z,12.80
2018-04-30T11:16:20.782Z,11.07
2018-04-30T11:18:49.824Z,12.07
2018-04-30T11:21:19.664Z,13.03
2018-04-30T11:23:48.719Z,13.60
2018-04-30T11:26:17.810Z,13.10
2018-04-30T11:28:46.890Z,12.40
2018-04-30T11:31:15.985Z,12.93
2018-04-30T11:33:45.048Z,13.30
2018-04-30T11:36:14.089Z,12.43
2018-04-30T11:38:43.178Z,13.80
2018-04-30T11:41:12.253Z,13.00
2018-04-30T11:43:41.302Z,13.33
2018-04-30T11:46:11.160Z,11.90
2018-04-30T11:48:40.217Z,12.00
2018-04-30T11:51:10.097Z,10.90
2018-04-30T11:53:39.153Z,20.53
2018-04-30T11:56:08.229Z,10.53
2018-04-30T11:58:37.350Z,10.40
2018-04-30T12:01:06.374Z,11.93
2018-04-30T12:03:35.421Z,11.23
2018-04-30T12:06:04.500Z,11.63
2018-04-30T12:08:33.560Z,12.27
2018-04-30T12:11:02.671Z,11.60
2018-04-30T12:13:31.739Z,11.07
2018-04-30T12:16:00.814Z,10.30
2018-04-30T12:18:29.872Z,10.00
2018-04-30T12:20:59.730Z,10.30
2018-04-30T12:23:28.801Z,10.83
2018-04-30T12:25:58.081Z,9.80
2018-04-30T12:28:27.512Z,11.17
2018-04-30T12:30:56.589Z,10.83
2018-04-30T12:33:25.645Z,10.50
2018-04-30T12:35:54.719Z,11.37
2018-04-30T12:38:23.795Z,11.10
2018-04-30T12:40:52.845Z,10.77
2018-04-30T12:43:22.687Z,10.73
2018-04-30T12:45:51.736Z,10.50
2018-04-30T12:48:20.810Z,10.90
2018-04-30T12:50:49.929Z,11.40
2018-04-30T12:53:18.969Z,10.83
2018-04-30T12:55:48.022Z,10.73
2018-04-30T12:58:17.865Z,10.40
2018-04-30T13:00:46.912Z,10.23
2018-04-30T13:03:16.755Z,10.87
2018-04-30T13:05:46.909Z,10.50
2018-04-30T13:08:15.965Z,10.90
2018-04-30T13:10:45.811Z,10.77
2018-04-30T13:13:14.849Z,10.60
2018-04-30T13:15:43.960Z,10.33
2018-04-30T13:18:13.774Z,10.00
2018-04-30T13:20:43.636Z,10.70
2018-04-30T13:23:12.682Z,11.13
2018-04-30T13:25:42.508Z,9.30
2018-04-30T13:28:11.567Z,10.67
2018-04-30T13:30:40.639Z,10.30
2018-04-30T13:33:09.745Z,10.90
2018-04-30T13:35:38.833Z,10.03
2018-04-30T13:38:07.909Z,10.13
2018-04-30T13:40:37.051Z,9.60
2018-04-30T13:43:06.109Z,11.30
2018-04-30T13:45:35.155Z,9.73
2018-04-30T13:48:04.989Z,10.43
2018-04-30T13:50:34.061Z,10.17
2018-04-30T13:53:04.777Z,9.60
2018-04-30T13:55:33.841Z,9.77
2018-04-30T13:58:02.936Z,10.20
2018-04-30T14:00:31.978Z,10.10
2018-04-30T14:03:01.825Z,13.30
2018-04-30T14:05:30.875Z,10.73
2018-04-30T14:08:00.727Z,15.07
2018-04-30T14:10:29.786Z,17.23
2018-04-30T14:12:59.677Z,10.80
2018-04-30T14:15:28.773Z,10.40
2018-04-30T14:17:57.816Z,10.60
2018-04-30T14:20:26.903Z,10.57
2018-04-30T14:22:56.744Z,10.40
2018-04-30T14:25:25.817Z,10.50
2018-04-30T14:27:54.878Z,10.07
2018-04-30T14:30:23.986Z,11.37
2018-04-30T14:32:53.811Z,10.53
2018-04-30T14:35:23.666Z,9.40
2018-04-30T14:37:52.691Z,9.50
2018-04-30T14:40:21.767Z,13.83
2018-04-30T14:42:50.866Z,10.30
2018-04-30T14:45:19.900Z,11.97
2018-04-30T14:47:48.976Z,9.53
2018-04-30T14:50:18.015Z,9.63
2018-04-30T14:52:47.094Z,9.77
2018-04-30T14:55:16.181Z,11.57
2018-04-30T14:57:45.231Z,10.60
2018-04-30T15:00:14.325Z,10.40
2018-04-30T15:02:43.420Z,10.30
2018-04-30T15:05:12.535Z,10.90
2018-04-30T15:07:41.617Z,10.70
2018-04-30T15:10:10.677Z,10.47
2018-04-30T15:12:39.789Z,10.33
2018-04-30T15:15:08.875Z,10.80
2018-04-30T15:17:37.959Z,10.93
2018-04-30T15:20:07.002Z,11.07
2018-04-30T15:22:36.093Z,10.40
2018-04-30T15:25:05.148Z,9.90
2018-04-30T15:27:34.205Z,10.37
2018-04-30T15:30:04.056Z,9.07
2018-04-30T15:32:33.110Z,8.57
2018-04-30T15:35:02.941Z,9.47
2018-04-30T15:37:32.014Z,10.20
2018-04-30T15:40:01.830Z,8.43
2018-04-30T15:42:31.673Z,9.00
2018-04-30T15:45:00.745Z,8.47
2018-04-30T15:47:30.573Z,9.57
2018-04-30T15:49:59.629Z,18.67
2018-04-30T15:52:28.705Z,21.77
2018-04-30T15:54:57.798Z,13.70
2018-04-30T15:57:26.879Z,10.30
2018-04-30T15:59:55.960Z,9.87
2018-04-30T16:02:25.737Z,10.27
2018-04-30T16:04:55.584Z,9.50
2018-04-30T16:07:24.629Z,9.00
2018-04-30T16:09:54.464Z,9.53
2018-04-30T16:12:23.523Z,8.70
2018-04-30T16:14:52.739Z,9.20
2018-04-30T16:17:21.781Z,9.93
2018-04-30T16:19:50.908Z,10.10
2018-04-30T16:22:19.964Z,11.70
2018-04-30T16:24:49.065Z,9.70
2018-04-30T16:27:18.123Z,9.83
2018-04-30T16:29:47.968Z,9.80
2018-04-30T16:32:17.066Z,11.00
2018-04-30T16:34:46.163Z,10.83
2018-04-30T16:37:15.224Z,10.63
2018-04-30T16:39:44.340Z,10.07
2018-04-30T16:42:14.156Z,9.30
2018-04-30T16:44:43.250Z,9.90
2018-04-30T16:47:12.383Z,10.97
2018-04-30T16:49:41.407Z,10.60
2018-04-30T16:52:10.451Z,10.47
2018-04-30T16:54:39.541Z,10.27
2018-04-30T16:57:08.607Z,10.43
2018-04-30T16:59:37.688Z,10.70
2018-04-30T17:02:07.547Z,11.10
2018-04-30T17:04:36.625Z,10.30
2018-04-30T17:07:05.679Z,12.60
2018-04-30T17:09:34.763Z,10.73
2018-04-30T17:12:03.811Z,10.93
2018-04-30T17:14:32.849Z,12.27
2018-04-30T17:17:01.942Z,12.70
2018-04-30T17:19:30.989Z,13.37
2018-04-30T17:22:00.030Z,13.10
2018-04-30T17:24:29.151Z,12.10
2018-04-30T17:26:58.185Z,15.20
2018-04-30T17:29:27.265Z,12.13
2018-04-30T17:31:56.340Z,13.20
2018-04-30T17:34:26.289Z,12.13
2018-04-30T17:36:55.345Z,12.23
2018-04-30T17:39:25.192Z,11.93
2018-04-30T17:41:54.253Z,12.83
2018-04-30T17:44:24.070Z,13.43
2018-04-30T17:46:53.956Z,12.10
2018-04-30T17:49:22.966Z,12.13
2018-04-30T17:51:52.826Z,12.60
2018-04-30T17:54:21.873Z,14.33
2018-04-30T17:56:51.717Z,13.10
2018-04-30T17:59:20.775Z,13.00
2018-04-30T18:01:49.861Z,13.50
2018-04-30T18:04:18.942Z,14.17
2018-04-30T18:06:48.093Z,12.83
2018-04-30T18:09:17.078Z,13.90
2018-04-30T18:11:46.161Z,14.90
2018-04-30T18:14:15.988Z,14.10
2018-04-30T18:16:45.061Z,15.10
2018-04-30T18:19:14.917Z,13.50
2018-04-30T18:21:46.236Z,14.33
2018-04-30T18:24:15.287Z,15.37
2018-04-30T18:26:44.492Z,15.60
2018-04-30T18:29:13.591Z,15.27
2018-04-30T18:31:42.657Z,14.87
2018-04-30T18:34:11.720Z,16.20
2018-04-30T18:36:40.961Z,15.53
2018-04-30T18:39:10.027Z,15.20
2018-04-30T18:41:39.085Z,16.60
2018-04-30T18:44:08.930Z,14.37
2018-04-30T18:46:37.980Z,19.60
2018-04-30T18:49:07.044Z,17.43
2018-04-30T18:51:36.138Z,15.50
2018-04-30T18:54:05.201Z,14.47
2018-04-30T18:56:34.257Z,16.10
2018-04-30T18:59:03.390Z,16.80
2018-04-30T19:01:32.469Z,16.37
2018-04-30T19:04:02.297Z,16.57
2018-04-30T19:06:31.363Z,15.97
2018-04-30T19:09:00.525Z,15.93
2018-04-30T19:11:29.580Z,16.43
2018-04-30T19:13:58.623Z,16.50
2018-04-30T19:16:27.673Z,14.73
2018-04-30T19:18:56.824Z,15.63
2018-04-30T19:21:25.945Z,15.93
2018-04-30T19:23:55.024Z,15.13
2018-04-30T19:26:24.110Z,16.97
2018-04-30T19:28:53.164Z,14.77
2018-04-30T19:31:22.294Z,14.60
2018-04-30T19:33:51.481Z,15.47
2018-04-30T19:36:21.233Z,15.07
2018-04-30T19:38:51.462Z,14.93
2018-04-30T19:41:21.287Z,16.63
2018-04-30T19:43:50.348Z,17.77
2018-04-30T19:46:20.198Z,18.10
2018-04-30T19:48:49.239Z,16.67
2018-04-30T19:51:18.289Z,15.00
2018-04-30T19:53:47.372Z,14.90
2018-04-30T19:56:16.430Z,15.30
2018-04-30T19:58:45.488Z,16.57
2018-04-30T20:01:14.573Z,14.20
2018-04-30T20:03:43.617Z,15.40
2018-04-30T20:06:13.439Z,14.53
2018-04-30T20:08:44.010Z,16.53
2018-04-30T20:11:13.083Z,15.10
2018-04-30T20:13:42.216Z,16.57
2018-04-30T20:16:11.316Z,15.90
2018-04-30T20:18:40.393Z,15.30
2018-04-30T20:21:09.453Z,14.80
2018-04-30T20:23:39.317Z,16.30
2018-04-30T20:26:08.481Z,16.53
2018-04-30T20:28:37.445Z,15.77
2018-04-30T20:31:06.553Z,17.57
2018-04-30T20:33:36.364Z,16.77
2018-04-30T20:36:05.425Z,17.07
2018-04-30T20:38:34.498Z,16.10
2018-04-30T20:41:03.609Z,17.17
2018-04-30T20:43:32.696Z,17.13
2018-04-30T20:46:01.819Z,17.23
2018-04-30T20:48:30.885Z,17.53
2018-04-30T20:50:59.952Z,16.23
2018-04-30T20:53:29.039Z,17.00
2018-04-30T20:55:58.209Z,16.77
2018-04-30T20:58:28.236Z,17.70
2018-04-30T21:00:57.301Z,16.10
2018-04-30T21:03:26.360Z,17.00
2018-04-30T21:05:56.226Z,15.63
2018-04-30T21:08:26.069Z,16.70
2018-04-30T21:10:55.146Z,16.60
2018-04-30T21:13:24.997Z,18.17
2018-04-30T21:15:54.085Z,16.10
2018-04-30T21:18:23.179Z,16.77
2018-04-30T21:20:52.264Z,16.60
2018-04-30T21:23:21.348Z,17.50
2018-04-30T21:25:50.408Z,16.30
2018-04-30T21:28:19.484Z,16.73
2018-04-30T21:30:48.549Z,17.77
2018-04-30T21:33:17.616Z,15.80
2018-04-30T21:35:47.429Z,16.60
2018-04-30T21:38:17.288Z,15.43
2018-04-30T21:40:46.445Z,17.70
2018-04-30T21:43:15.522Z,18.50
2018-04-30T21:45:46.097Z,16.30
2018-04-30T21:48:15.186Z,16.10
2018-04-30T21:50:44.270Z,16.10
2018-04-30T21:53:13.348Z,15.23
2018-04-30T21:55:43.168Z,16.03
2018-04-30T21:58:12.259Z,16.53
2018-04-30T22:00:42.805Z,16.00
2018-04-30T22:03:11.887Z,16.40
2018-04-30T22:05:41.771Z,16.30
2018-04-30T22:08:10.862Z,15.40
2018-04-30T22:10:39.917Z,17.33
2018-04-30T22:13:09.080Z,16.83
2018-04-30T22:15:38.959Z,15.00
2018-04-30T22:18:08.010Z,15.70
2018-04-30T22:20:37.082Z,15.70
2018-04-30T22:23:06.915Z,16.17
2018-04-30T22:25:35.996Z,16.67
2018-04-30T22:28:05.058Z,16.30
2018-04-30T22:30:34.144Z,15.73
2018-04-30T22:33:03.202Z,15.40
2018-04-30T22:35:32.294Z,16.57
2018-04-30T22:38:01.364Z,16.50
2018-04-30T22:40:30.451Z,17.37
2018-04-30T22:43:00.297Z,15.97
2018-04-30T22:45:29.473Z,17.37
2018-04-30T22:47:58.521Z,15.17
2018-04-30T22:50:27.627Z,15.93
2018-04-30T22:52:56.692Z,16.10
2018-04-30T22:55:25.775Z,16.03
2018-04-30T22:57:55.017Z,16.03
2018-04-30T23:00:25.866Z,16.17
2018-04-30T23:02:55.704Z,16.07
2018-04-30T23:05:24.777Z,16.47
2018-04-30T23:07:54.625Z,15.00
2018-04-30T23:10:23.787Z,16.20
2018-04-30T23:12:53.598Z,15.53
2018-04-30T23:15:23.460Z,15.37
2018-04-30T23:17:52.508Z,16.27
2018-04-30T23:20:22.338Z,17.17
2018-04-30T23:22:51.790Z,17.40
2018-04-30T23:25:21.542Z,15.93
2018-04-30T23:27:51.395Z,15.43
2018-04-30T23:30:20.434Z,15.70
2018-04-30T23:32:50.284Z,16.10
2018-04-30T23:35:19.355Z,15.83
2018-04-30T23:37:49.217Z,16.50
2018-04-30T23:40:19.105Z,16.10
2018-04-30T23:42:48.194Z,16.20
2018-04-30T23:45:17.286Z,16.17
2018-04-30T23:47:46.383Z,16.47
2018-04-30T23:50:15.435Z,15.63
2018-04-30T23:52:44.518Z,16.60
2018-04-30T23:55:13.592Z,17.00
2018-04-30T23:57:42.825Z,14.17
